עמוד ראשי
METAR-TAF:

METAR-TAF

שדות תעופה :

פלוריאנופוליס, סנטה קטרינה, ברזיל

קו רוחב: 27-40S, קו אורך: 048-33W, גובה: 5מטר

תצפית מזג אוויר נוכחית

הדו"ח נערך לפני 44דקות, בשעה 21:00 UTC
רוח 8קשר מכיוון צפון/צפון-מערב
טמפרטורת 21 צלסיוס
לחות 83%
לחץ 1014 hPa
ראות 10 קילומטר או יותר
ללא עננים שבסיסם נמוך מ 5000 רגל או קומולונימבוס

METAR: SBFL 142100Z 33008KT CAVOK 21/18 Q1014

זמן: 18:44 (21:44 UTC)

תחזית

הדו"ח נערך לפני 6 שעות ו 44דקות, בשעה 15:00 UTC
תחזית בתוקף מ 14 ב 18 UTC עד 15 ב 18 UTC
רוח 9קשר מכיוון צפון/צפון-מערב
ראות 10 קילומטר או יותר
ללא עננים שבסיסם נמוך מ 5000 רגל או קומולונימבוס
הסתברות 40%
14 ב 18 UTC עד 14 ב 20 UTC
רוח 10קשר מכיוון צפון/צפון-מערב עם משבים עד 21קשר
יעשה מ
14 ב 22 UTC עד 14 ב 24 UTC
רוח 6קשר מכיוון צפון/צפון-מערב
יעשה מ
15 ב 11 UTC עד 15 ב 13 UTC
רוח 9קשר מכיוון צפון/צפון-מערב

TAF: SBFL 141500Z 1418/1518 34009KT CAVOK TX25/1418Z TN17/1509Z PROB40 1418/1420 34010G21KT BECMG 1422/1424 34006KT BECMG 1511/1513 34009KT RMK PES

תצפיות ותחזיות מזג אוויר לגבי יותר מ- 4,000 שדות תעופה ברחבי העולם. דוחות METAR ו- TAF.

התחנות הזמינות מסומנות בנקודות צהובות ואדומות על גבי המפה.

העבר את העכבר לנקודה הצבעונית על מנת לראות את שם התחנה.

לאחר מכן, לחץ כדי לראות את תוכן ואת תחזיות מזג האוויר.

כדי לשנות את המפה: לחץ על הכפתורים הירוקים עם הפלוס השחור כדי להתקרב; על הכפתור הירוק עם המקף כדי להתרחק; או בחיצים הירוקים למפות סמוכות.


METAR-TAF: